Time;durP1;ratioP1;P1;durP2;ratioP2;P2;SDS_P1;SDS_P2;PMS_P1;PMS_P2;Temp;Humidity;BMP_temperature;BMP_pressure;BME280_temperature;BME280_humidity;BME280_pressure;Samples;Min_cycle;Max_cycle;Signal;HPM_P1;HPM_P2
2021/12/23 00:00:56;;;;;;;44.40;24.58;;;;;;;-3.72;93.49;97025.63;5092286;28;20397;-63
2021/12/23 00:03:22;;;;;;;44.22;24.90;;;;;;;-3.91;93.19;97023.84;5091314;28;20455;-62
2021/12/23 00:05:47;;;;;;;47.35;26.75;;;;;;;-3.77;94.11;97027.78;5092158;28;20497;-63
2021/12/23 00:08:13;;;;;;;43.60;26.17;;;;;;;-3.64;92.79;97012.16;5092763;28;20816;-63
2021/12/23 00:10:40;;;;;;;44.97;26.63;;;;;;;-3.69;93.51;96998.97;5092497;28;20386;-63
2021/12/23 00:13:05;;;;;;;45.65;26.05;;;;;;;-3.87;93.24;96996.22;5092272;28;20751;-62
2021/12/23 00:15:50;;;;;;;42.75;25.17;;;;;;;-3.89;93.70;96990.41;5092620;28;20402;-62
2021/12/23 00:18:41;;;;;;;44.57;26.00;;;;;;;-3.81;93.25;96996.50;5092640;28;20394;-62
2021/12/23 00:23:50;;;;;;;42.90;25.02;;;;;;;-3.65;93.13;96978.06;5092512;28;20432;-62
2021/12/23 00:26:15;;;;;;;44.33;25.25;;;;;;;-3.60;91.81;96982.78;5092700;28;20421;-62
2021/12/23 00:28:41;;;;;;;42.92;25.10;;;;;;;-3.65;92.27;96985.75;5092404;28;20397;-62
2021/12/23 00:31:07;;;;;;;41.90;25.48;;;;;;;-3.71;92.21;96982.91;5090493;28;20735;-63
2021/12/23 00:33:35;;;;;;;43.40;25.48;;;;;;;-3.72;92.30;96989.78;5090749;28;20441;-63
2021/12/23 00:36:04;;;;;;;42.25;25.42;;;;;;;-3.68;92.56;96985.22;5091732;28;20767;-63
2021/12/23 00:38:34;;;;;;;41.60;25.02;;;;;;;-3.55;91.61;96976.31;5090830;28;20432;-63
2021/12/23 00:41:02;;;;;;;40.28;25.15;;;;;;;-3.68;92.05;96978.34;5091948;28;20511;-63
2021/12/23 00:43:29;;;;;;;42.47;24.48;;;;;;;-3.85;92.25;96969.56;5092293;28;20437;-63
2021/12/23 00:45:54;;;;;;;40.72;24.42;;;;;;;-3.74;92.05;96972.94;5092161;28;20881;-63
2021/12/23 00:48:20;;;;;;;41.47;24.08;;;;;;;-3.72;92.32;96960.78;5091346;28;20397;-63
2021/12/23 00:50:47;;;;;;;42.80;24.67;;;;;;;-3.66;91.58;96957.69;5092024;28;20378;-63
2021/12/23 00:53:17;;;;;;;41.13;24.27;;;;;;;-3.66;92.06;96952.59;5091887;28;20437;-63
2021/12/23 00:55:45;;;;;;;42.58;25.70;;;;;;;-3.65;91.33;96951.66;5091672;28;20394;-63
2021/12/23 00:58:10;;;;;;;42.30;24.92;;;;;;;-3.84;91.91;96949.88;5091702;28;20877;-62
2021/12/23 01:00:36;;;;;;;42.80;25.37;;;;;;;-3.68;91.49;96957.84;5090285;28;20389;-64
2021/12/23 01:03:03;;;;;;;41.27;24.90;;;;;;;-3.66;91.57;96952.59;5076692;28;20389;-62
2021/12/23 01:05:29;;;;;;;39.97;23.77;;;;;;;-3.79;92.26;96945.97;5091796;28;20428;-63
2021/12/23 01:07:55;;;;;;;40.80;24.45;;;;;;;-3.50;90.71;96943.41;5091594;28;20394;-63
2021/12/23 01:10:23;;;;;;;45.67;25.67;;;;;;;-3.63;91.31;96949.78;5091972;28;20406;-63
2021/12/23 01:12:53;;;;;;;40.67;24.40;;;;;;;-3.56;91.32;96949.06;5091534;28;20397;-63
2021/12/23 01:17:56;;;;;;;40.73;24.33;;;;;;;-3.52;90.33;96935.06;5091860;28;20424;-63
2021/12/23 01:20:30;;;;;;;38.70;23.20;;;;;;;-3.62;89.74;96941.94;5091423;28;20390;-63
2021/12/23 01:23:01;;;;;;;40.20;23.63;;;;;;;-3.51;90.02;96943.56;5091665;28;20386;-63
2021/12/23 01:25:27;;;;;;;41.97;23.38;;;;;;;-3.50;89.39;96940.84;5090668;28;20444;-63
2021/12/23 01:27:53;;;;;;;38.92;23.40;;;;;;;-3.34;88.32;96940.28;5090456;28;20421;-63
2021/12/23 01:30:19;;;;;;;36.80;22.70;;;;;;;-3.45;89.15;96938.69;5091855;28;20425;-63
2021/12/23 01:32:48;;;;;;;36.60;22.42;;;;;;;-3.35;88.48;96941.25;5094825;28;20398;-63
2021/12/23 01:35:14;;;;;;;38.55;22.77;;;;;;;-3.33;88.14;96930.84;5095399;28;20398;-63
2021/12/23 01:37:40;;;;;;;36.43;22.47;;;;;;;-3.30;88.73;96928.84;5095581;28;20410;-63
2021/12/23 01:40:07;;;;;;;38.85;23.27;;;;;;;-3.37;88.31;96927.78;5095512;28;20446;-65
2021/12/23 01:42:33;;;;;;;40.72;23.70;;;;;;;-3.58;88.56;96915.13;5079111;28;20394;-63
2021/12/23 01:44:58;;;;;;;41.67;24.23;;;;;;;-3.58;89.20;96909.19;5093953;28;20413;-63
2021/12/23 01:47:24;;;;;;;37.83;23.27;;;;;;;-3.63;88.79;96911.34;5095576;28;20479;-63
2021/12/23 01:49:50;;;;;;;38.20;23.23;;;;;;;-3.78;89.21;96898.94;5095580;28;20516;-63
2021/12/23 01:52:16;;;;;;;37.10;23.10;;;;;;;-3.59;88.01;96897.31;5095267;28;20739;-63
2021/12/23 01:54:41;;;;;;;38.30;22.08;;;;;;;-3.78;88.42;96895.56;5095670;28;20877;-62
2021/12/23 01:57:07;;;;;;;40.53;23.40;;;;;;;-3.65;87.92;96891.00;5095414;28;20390;-63
2021/12/23 01:59:33;;;;;;;37.83;22.33;;;;;;;-3.72;87.93;96895.03;5094332;28;20382;-64
2021/12/23 02:01:59;;;;;;;35.72;21.73;;;;;;;-3.64;87.55;96897.75;5094891;28;20401;-63
2021/12/23 02:04:24;;;;;;;36.80;22.67;;;;;;;-3.81;88.13;96908.66;5095117;28;20409;-63
2021/12/23 02:06:50;;;;;;;36.63;22.50;;;;;;;-3.69;87.84;96897.34;5095201;28;20400;-63
2021/12/23 02:09:15;;;;;;;36.47;21.73;;;;;;;-3.82;87.77;96892.47;5095296;28;20858;-63
2021/12/23 02:11:41;;;;;;;37.03;22.35;;;;;;;-3.88;88.18;96895.56;5095499;28;20398;-63
2021/12/23 02:14:07;;;;;;;37.30;22.52;;;;;;;-3.63;87.75;96886.56;5094893;28;20480;-64
2021/12/23 02:16:33;;;;;;;34.20;21.67;;;;;;;-3.85;87.86;96879.16;5094620;28;20941;-63
2021/12/23 02:18:58;;;;;;;36.23;22.30;;;;;;;-3.78;87.62;96883.59;5094697;28;20486;-63
2021/12/23 02:21:24;;;;;;;36.43;22.73;;;;;;;-3.99;87.03;96885.47;5094041;28;20386;-63
2021/12/23 02:23:49;;;;;;;33.80;21.17;;;;;;;-3.98;88.27;96879.41;5094573;28;20785;-63
2021/12/23 02:26:15;;;;;;;35.28;22.00;;;;;;;-4.00;87.99;96881.28;5094338;28;20418;-63
2021/12/23 02:28:40;;;;;;;36.23;21.53;;;;;;;-3.84;87.08;96868.75;5094486;28;20390;-64
2021/12/23 02:31:05;;;;;;;34.20;21.77;;;;;;;-3.85;86.58;96871.47;5094460;28;21202;-63
2021/12/23 02:33:34;;;;;;;35.27;21.53;;;;;;;-3.77;86.88;96862.16;5094290;28;20543;-64
2021/12/23 02:35:59;;;;;;;34.33;21.37;;;;;;;-3.88;87.46;96858.94;5094757;28;20462;-63
2021/12/23 02:38:25;;;;;;;34.20;20.75;;;;;;;-3.85;87.36;96861.22;5094222;28;20406;-63
2021/12/23 02:40:51;;;;;;;35.63;21.67;;;;;;;-3.76;86.33;96860.41;5092947;28;20450;-63
2021/12/23 02:43:22;;;;;;;34.47;21.13;;;;;;;-3.96;88.51;96853.69;5092753;28;20393;-68
2021/12/23 02:45:50;;;;;;;35.80;20.83;;;;;;;-3.54;86.45;96844.75;5093940;28;20447;-63
2021/12/23 02:48:32;;;;;;;34.90;20.67;;;;;;;-3.59;85.96;96843.53;5094714;28;20409;-63
2021/12/23 02:50:59;;;;;;;34.47;21.10;;;;;;;-3.67;86.43;96835.72;5093003;28;20807;-62
2021/12/23 02:53:24;;;;;;;34.17;20.70;;;;;;;-3.60;86.05;96839.38;5092880;28;20382;-63
2021/12/23 02:55:53;;;;;;;34.00;21.17;;;;;;;-3.59;85.74;96843.53;5094099;28;20394;-63
2021/12/23 02:58:18;;;;;;;32.88;20.63;;;;;;;-3.42;85.42;96837.72;5093809;28;20435;-61
2021/12/23 03:00:46;;;;;;;33.53;20.70;;;;;;;-3.72;86.00;96840.44;5093365;28;20386;-62
2021/12/23 03:03:12;;;;;;;34.22;21.25;;;;;;;-3.71;86.20;96836.94;5093836;28;20443;-63
2021/12/23 03:05:37;;;;;;;33.15;20.67;;;;;;;-3.71;85.88;96834.38;5094046;28;20500;-63
2021/12/23 03:08:03;;;;;;;31.97;20.00;;;;;;;-3.57;85.31;96845.03;5091834;28;20905;-63
2021/12/23 03:10:28;;;;;;;34.22;21.10;;;;;;;-3.43;85.21;96846.34;5093689;28;20449;-61
2021/12/23 03:12:54;;;;;;;33.47;20.30;;;;;;;-3.60;85.57;96844.47;5092453;28;20815;-61
2021/12/23 03:15:20;;;;;;;31.87;19.93;;;;;;;-3.63;85.98;96843.03;5094276;28;20473;-61
2021/12/23 03:17:46;;;;;;;32.67;19.88;;;;;;;-3.60;85.69;96827.38;5092571;28;20951;-61
2021/12/23 03:20:11;;;;;;;30.87;19.00;;;;;;;-3.71;86.28;96824.97;5094045;28;20393;-61
2021/12/23 03:22:37;;;;;;;29.70;19.00;;;;;;;-3.41;83.96;96822.22;5093281;28;20501;-66
2021/12/23 03:25:03;;;;;;;28.80;18.37;;;;;;;-3.25;83.51;96826.75;5077431;28;20833;-62
2021/12/23 03:27:28;;;;;;;27.80;17.40;;;;;;;-3.03;82.62;96818.72;5093654;28;20382;-61
2021/12/23 03:29:56;;;;;;;29.07;17.80;;;;;;;-3.22;82.36;96812.84;5093616;28;20846;-61
2021/12/23 03:32:22;;;;;;;29.38;18.02;;;;;;;-2.94;81.01;96793.97;5093621;28;20414;-61
2021/12/23 03:34:47;;;;;;;29.13;17.95;;;;;;;-3.09;81.42;96795.38;5093168;28;20417;-61
2021/12/23 03:37:13;;;;;;;29.02;17.73;;;;;;;-2.91;81.36;96791.13;5092838;28;20451;-61
2021/12/23 03:39:38;;;;;;;28.63;17.70;;;;;;;-3.11;82.55;96797.28;5093113;28;20436;-62
2021/12/23 03:42:04;;;;;;;28.57;17.53;;;;;;;-3.13;82.75;96796.63;5091995;28;20385;-61
2021/12/23 03:44:30;;;;;;;28.17;17.50;;;;;;;-3.09;81.91;96793.63;5093077;28;20410;-61
2021/12/23 03:46:55;;;;;;;31.07;17.77;;;;;;;-3.21;82.38;96773.44;5092530;28;20393;-61
2021/12/23 03:49:21;;;;;;;30.47;18.73;;;;;;;-3.20;82.78;96777.63;5093120;28;20390;-61
2021/12/23 03:51:46;;;;;;;29.42;17.63;;;;;;;-3.18;82.48;96770.63;5092730;28;20858;-61
2021/12/23 03:54:12;;;;;;;27.35;17.35;;;;;;;-3.09;82.01;96769.75;5091826;28;20382;-66
2021/12/23 03:56:37;;;;;;;26.90;16.87;;;;;;;-3.10;81.15;96765.56;5092524;28;20416;-61
2021/12/23 03:59:03;;;;;;;26.23;16.50;;;;;;;-2.99;80.92;96762.81;5092307;28;20390;-68
2021/12/23 04:01:30;;;;;;;29.33;16.83;;;;;;;-3.02;81.07;96753.69;5092498;28;20401;-62
2021/12/23 04:03:56;;;;;;;28.38;17.27;;;;;;;-3.02;81.25;96752.88;5092450;28;20407;-61
2021/12/23 04:06:22;;;;;;;26.50;16.65;;;;;;;-3.08;81.14;96746.56;5093106;28;20408;-61
2021/12/23 04:08:48;;;;;;;26.90;16.92;;;;;;;-3.13;81.77;96750.50;5092490;28;20878;-61
2021/12/23 04:11:14;;;;;;;26.38;16.45;;;;;;;-3.01;80.31;96742.44;5092454;28;20413;-61
2021/12/23 04:13:40;;;;;;;24.75;15.65;;;;;;;-2.96;80.40;96752.31;5092767;28;20409;-61
2021/12/23 04:16:06;;;;;;;26.47;16.33;;;;;;;-2.91;80.45;96752.66;5092403;28;20862;-61
2021/12/23 04:18:31;;;;;;;27.20;16.73;;;;;;;-2.99;80.56;96760.25;5093025;28;20489;-60
2021/12/23 04:20:57;;;;;;;25.63;15.88;;;;;;;-2.95;80.10;96759.81;5091266;28;20409;-61
2021/12/23 04:23:27;;;;;;;25.33;16.13;;;;;;;-2.96;80.91;96749.72;5092507;28;20393;-61
2021/12/23 04:25:54;;;;;;;26.27;16.67;;;;;;;-3.08;80.73;96745.75;5092028;28;20406;-61
2021/12/23 04:28:20;;;;;;;24.73;15.70;;;;;;;-2.91;80.20;96744.16;5092404;28;20569;-61
2021/12/23 04:30:46;;;;;;;24.90;16.15;;;;;;;-2.87;80.24;96748.06;5091912;28;20755;-61
2021/12/23 04:33:12;;;;;;;25.77;16.35;;;;;;;-2.80;79.75;96733.72;5092120;28;20390;-61
2021/12/23 04:35:38;;;;;;;27.75;17.23;;;;;;;-2.66;78.79;96730.63;5092285;28;20475;-61
2021/12/23 04:38:04;;;;;;;25.93;15.80;;;;;;;-2.68;79.38;96715.41;5091477;28;20454;-63
2021/12/23 04:40:30;;;;;;;27.00;17.23;;;;;;;-2.73;79.72;96720.16;5090374;28;20454;-62
2021/12/23 04:42:57;;;;;;;29.33;17.00;;;;;;;-2.75;80.24;96716.13;5090946;28;20400;-62
2021/12/23 04:45:23;;;;;;;27.85;16.63;;;;;;;-2.70;79.37;96716.50;5091907;28;20410;-62
2021/12/23 04:47:48;;;;;;;28.77;17.43;;;;;;;-2.48;78.86;96715.25;5090588;28;20447;-64
2021/12/23 04:50:15;;;;;;;29.47;17.37;;;;;;;-2.45;78.93;96708.03;5092508;28;20398;-62
2021/12/23 04:52:43;;;;;;;27.17;17.23;;;;;;;-2.44;79.11;96711.41;5075855;28;20399;-62
2021/12/23 04:55:10;;;;;;;29.02;17.35;;;;;;;-2.56;79.11;96713.41;5092175;28;20401;-61
2021/12/23 04:57:37;;;;;;;28.08;17.05;;;;;;;-2.62;79.43;96714.03;5091954;28;20454;-61
2021/12/23 05:00:14;;;;;;;26.35;16.63;;;;;;;-2.56;79.42;96714.22;5091304;28;20382;-62
2021/12/23 05:02:39;;;;;;;27.47;17.07;;;;;;;-2.53;78.75;96711.38;5091874;28;20404;-62
2021/12/23 05:05:06;;;;;;;26.77;17.00;;;;;;;-2.72;80.38;96697.88;5091094;28;20394;-62
2021/12/23 05:07:31;;;;;;;28.48;17.73;;;;;;;-2.54;79.85;96699.50;5092028;28;20401;-62
2021/12/23 05:09:56;;;;;;;28.03;16.43;;;;;;;-2.46;79.70;96693.63;5090321;28;20386;-62
2021/12/23 05:12:22;;;;;;;27.77;17.13;;;;;;;-2.40;79.19;96690.47;5090113;28;20540;-62
2021/12/23 05:14:47;;;;;;;28.13;16.67;;;;;;;-2.49;79.44;96693.09;5091742;28;20489;-62
2021/12/23 05:17:13;;;;;;;27.17;17.00;;;;;;;-2.44;78.65;96693.47;5091864;28;20385;-62
2021/12/23 05:19:38;;;;;;;28.17;16.70;;;;;;;-2.39;78.26;96696.38;5090303;28;20386;-62
2021/12/23 05:22:04;;;;;;;27.60;16.73;;;;;;;-2.44;79.01;96693.47;5091505;28;20846;-62
2021/12/23 05:24:29;;;;;;;27.03;15.90;;;;;;;-2.53;79.48;96683.16;5091487;28;20858;-62
2021/12/23 05:26:55;;;;;;;26.90;17.02;;;;;;;-2.61;78.42;96677.13;5090260;28;20390;-62
2021/12/23 05:29:20;;;;;;;29.03;17.10;;;;;;;-2.52;78.75;96691.66;5090130;28;20893;-62
2021/12/23 05:31:46;;;;;;;27.17;16.75;;;;;;;-2.57;79.15;96697.22;5091052;28;20386;-62
2021/12/23 05:34:11;;;;;;;23.97;15.87;;;;;;;-2.56;78.51;96698.00;5091596;28;20386;-62
2021/12/23 05:36:36;;;;;;;26.10;15.87;;;;;;;-2.76;79.13;96702.50;5089888;28;20416;-62
2021/12/23 05:39:03;;;;;;;25.40;15.23;;;;;;;-2.86;79.10;96711.22;5091385;28;20440;-62
2021/12/23 05:41:28;;;;;;;24.90;15.57;;;;;;;-3.01;79.33;96709.13;5090276;28;20877;-62
2021/12/23 05:43:58;;;;;;;25.60;15.07;;;;;;;-2.64;78.55;96703.91;5091459;28;20477;-62
2021/12/23 05:46:23;;;;;;;25.58;15.63;;;;;;;-2.77;79.25;96702.63;5091319;28;20421;-62
2021/12/23 05:48:49;;;;;;;22.88;15.20;;;;;;;-2.66;78.46;96705.78;5091406;28;20436;-62
2021/12/23 05:51:15;;;;;;;24.52;15.57;;;;;;;-2.60;77.93;96699.25;5091408;28;20393;-62
2021/12/23 05:53:41;;;;;;;25.87;15.90;;;;;;;-2.78;79.17;96694.13;5090932;28;20758;-62
2021/12/23 05:56:06;;;;;;;26.27;16.00;;;;;;;-2.80;79.12;96674.72;5091190;28;20865;-62
2021/12/23 05:58:32;;;;;;;24.60;14.83;;;;;;;-2.77;78.72;96672.66;5091534;28;20874;-62
2021/12/23 06:00:58;;;;;;;25.80;15.00;;;;;;;-2.86;79.87;96673.56;5090888;28;20548;-61
2021/12/23 06:03:24;;;;;;;24.95;15.57;;;;;;;-3.05;79.79;96671.94;5091194;28;20738;-62
2021/12/23 06:05:50;;;;;;;24.90;15.02;;;;;;;-2.93;78.99;96667.41;5091631;28;20448;-62
2021/12/23 06:08:16;;;;;;;24.08;16.25;;;;;;;-2.78;78.88;96660.00;5090963;28;20822;-62
2021/12/23 06:10:41;;;;;;;27.30;15.95;;;;;;;-2.76;78.47;96652.97;5089950;28;20464;-62
2021/12/23 06:13:06;;;;;;;23.70;15.37;;;;;;;-2.80;78.00;96656.78;5090585;28;20473;-63
2021/12/23 06:15:32;;;;;;;24.70;15.23;;;;;;;-2.77;77.87;96659.84;5090380;28;20397;-63
2021/12/23 06:17:57;;;;;;;24.53;15.37;;;;;;;-2.67;77.81;96658.00;5094522;28;20390;-63
2021/12/23 06:20:22;;;;;;;23.35;14.60;;;;;;;-2.60;77.75;96650.53;5095430;28;20572;-63
2021/12/23 06:22:48;;;;;;;25.10;14.93;;;;;;;-2.72;77.69;96644.81;5094880;28;20425;-64
2021/12/23 06:25:14;;;;;;;24.47;15.83;;;;;;;-2.89;78.21;96648.19;5094797;28;20437;-63
2021/12/23 06:27:41;;;;;;;26.70;16.30;;;;;;;-3.04;79.12;96660.72;5094977;28;20813;-63
2021/12/23 06:30:17;;;;;;;25.33;16.23;;;;;;;-3.07;79.63;96658.47;5094936;28;20397;-63
2021/12/23 06:32:48;;;;;;;26.25;16.73;;;;;;;-3.21;79.88;96658.94;5094533;28;20390;-63
2021/12/23 06:35:14;;;;;;;28.42;17.63;;;;;;;-3.07;80.21;96657.66;5094965;28;20405;-63
2021/12/23 06:37:40;;;;;;;27.03;17.47;;;;;;;-3.12;80.29;96663.19;5094655;28;20501;-63
2021/12/23 06:40:08;;;;;;;26.57;16.73;;;;;;;-3.14;80.71;96662.56;5094877;28;20431;-63
2021/12/23 06:42:33;;;;;;;28.13;17.57;;;;;;;-3.03;80.34;96667.47;5094834;28;20873;-63
2021/12/23 06:44:59;;;;;;;29.80;17.87;;;;;;;-2.98;79.98;96667.84;5094623;28;20398;-63
2021/12/23 06:47:24;;;;;;;28.63;17.30;;;;;;;-2.96;79.89;96671.06;5094720;28;20382;-62
2021/12/23 06:49:50;;;;;;;28.65;17.60;;;;;;;-3.02;80.95;96655.47;5094197;28;20385;-62
2021/12/23 06:52:15;;;;;;;28.07;17.30;;;;;;;-3.08;81.18;96653.47;5094261;28;20426;-62
2021/12/23 06:54:46;;;;;;;30.27;17.83;;;;;;;-3.36;82.20;96668.06;5094084;28;20439;-62
2021/12/23 06:57:13;;;;;;;28.88;18.08;;;;;;;-3.02;81.64;96666.53;5092892;28;20882;-63
2021/12/23 06:59:38;;;;;;;28.98;18.20;;;;;;;-2.98;81.27;96665.28;5092884;28;20390;-63
2021/12/23 07:02:04;;;;;;;30.80;18.37;;;;;;;-3.07;81.54;96658.47;5093851;28;20862;-62
2021/12/23 07:04:32;;;;;;;30.43;18.57;;;;;;;-3.36;81.99;96661.19;5093944;28;20402;-62
2021/12/23 07:07:11;;;;;;;30.42;18.50;;;;;;;-3.20;81.40;96675.13;5093503;28;20405;-62
2021/12/23 07:09:38;;;;;;;29.20;17.73;;;;;;;-3.23;82.17;96673.66;5092632;28;20754;-63
2021/12/23 07:12:05;;;;;;;29.08;17.23;;;;;;;-3.04;82.11;96672.72;5093843;28;20386;-62
2021/12/23 07:14:30;;;;;;;27.75;17.73;;;;;;;-2.90;80.94;96671.44;5093553;28;20827;-63
2021/12/23 07:16:56;;;;;;;31.80;18.80;;;;;;;-2.78;80.82;96663.38;5092466;28;20393;-62
2021/12/23 07:19:21;;;;;;;31.20;18.00;;;;;;;-2.90;81.42;96664.56;5093518;28;20481;-62
2021/12/23 07:21:46;;;;;;;28.87;18.23;;;;;;;-2.98;81.98;96665.28;5093778;28;20865;-63
2021/12/23 07:24:12;;;;;;;26.43;16.43;;;;;;;-2.12;95.68;96671.41;5093472;28;20382;-66
2021/12/23 07:26:37;;;;;;;46.17;23.50;;;;;;;-1.39;84.27;96658.94;5093169;28;20385;-63
2021/12/23 07:29:03;;;;;;;28.67;18.03;;;;;;;-1.82;80.32;96662.44;5092337;28;20409;-63
2021/12/23 07:31:28;;;;;;;28.50;17.77;;;;;;;-2.21;79.66;96671.50;5093400;28;20390;-63
2021/12/23 07:33:54;;;;;;;28.95;17.83;;;;;;;-2.48;80.19;96666.50;5093350;28;20440;-63
2021/12/23 07:36:22;;;;;;;29.77;18.77;;;;;;;-2.46;81.04;96670.53;5092927;28;20402;-63
2021/12/23 07:38:48;;;;;;;29.02;18.77;;;;;;;-2.77;80.89;96664.16;5092923;28;20418;-67
2021/12/23 07:41:14;;;;;;;31.33;19.27;;;;;;;-2.73;81.16;96665.50;5086154;28;20417;-62
2021/12/23 07:46:06;;;;;;;30.88;19.13;;;;;;;-2.86;81.54;96659.94;5092571;28;20405;-62
2021/12/23 07:48:31;;;;;;;30.52;18.00;;;;;;;-2.82;82.41;96654.34;5093430;28;20390;-63
2021/12/23 07:50:58;;;;;;;29.85;18.63;;;;;;;-2.69;81.79;96649.69;5093274;28;20393;-62
2021/12/23 07:53:23;;;;;;;30.17;18.65;;;;;;;-2.75;81.79;96657.94;5092570;28;20390;-67
2021/12/23 07:55:49;;;;;;;32.23;19.97;;;;;;;-2.89;82.09;96663.56;5092990;28;20394;-63
2021/12/23 07:58:16;;;;;;;33.90;19.63;;;;;;;-2.74;82.83;96664.69;5091859;28;20382;-63
2021/12/23 08:00:42;;;;;;;29.35;18.88;;;;;;;-2.66;82.04;96666.50;5092448;28;20394;-64
2021/12/23 08:03:07;;;;;;;34.65;20.58;;;;;;;-2.63;81.89;96669.59;5092502;28;20394;-63
2021/12/23 08:05:34;;;;;;;30.57;19.23;;;;;;;-2.76;82.26;96661.47;5091627;28;20766;-63
2021/12/23 08:08:00;;;;;;;31.48;19.38;;;;;;;-2.75;82.07;96664.84;5091361;28;20394;-63
2021/12/23 08:10:25;;;;;;;32.92;19.63;;;;;;;-2.52;81.51;96651.41;5092097;28;20476;-63
2021/12/23 08:12:51;;;;;;;34.57;20.33;;;;;;;-2.51;81.40;96647.09;5091531;28;20477;-63
2021/12/23 08:15:16;;;;;;;32.63;19.67;;;;;;;-2.39;81.37;96650.19;5092176;28;20421;-63
2021/12/23 08:17:42;;;;;;;32.87;19.40;;;;;;;-2.34;81.42;96643.66;5092369;28;20390;-63
2021/12/23 08:20:09;;;;;;;31.85;19.20;;;;;;;-2.24;80.94;96639.28;5091493;28;20398;-62
2021/12/23 08:22:34;;;;;;;31.90;19.40;;;;;;;-2.17;80.34;96637.69;5091004;28;20405;-66
2021/12/23 08:25:00;;;;;;;28.38;18.38;;;;;;;-2.03;80.07;96641.47;5091377;28;20402;-63
2021/12/23 08:27:28;;;;;;;28.50;18.08;;;;;;;-1.92;80.63;96636.06;5090285;28;20776;-64
2021/12/23 08:29:54;;;;;;;29.58;18.17;;;;;;;-1.59;79.02;96624.19;5091317;28;20390;-63
2021/12/23 08:32:20;;;;;;;30.88;18.52;;;;;;;-1.64;78.42;96623.84;5091887;28;20393;-62
2021/12/23 08:34:46;;;;;;;30.20;15.87;;;;;;;-1.59;79.15;96618.22;5093368;28;20211;-63
2021/12/23 08:37:12;;;;;;;32.95;18.75;;;;;;;-1.51;79.08;96593.38;5089328;28;20426;-63
2021/12/23 08:39:42;;;;;;;24.93;15.07;;;;;;;-1.55;79.26;96592.06;5089164;28;20196;-63
2021/12/23 08:42:08;;;;;;;25.33;14.37;;;;;;;-1.70;79.40;96591.06;5091339;28;20169;-62
2021/12/23 08:44:34;;;;;;;24.47;14.57;;;;;;;-1.69;79.20;96595.25;5093471;28;20668;-62
2021/12/23 08:47:00;;;;;;;24.90;13.77;;;;;;;-1.61;79.57;96607.28;5093342;28;20184;-64
2021/12/23 08:49:26;;;;;;;23.80;14.07;;;;;;;-1.48;78.69;96605.09;5093100;28;20192;-64
2021/12/23 08:51:52;;;;;;;25.83;13.60;;;;;;;-1.35;78.04;96610.63;5092523;28;20181;-63
2021/12/23 08:54:18;;;;;;;31.43;18.40;;;;;;;-1.39;78.65;96620.38;5091419;28;20404;-62
2021/12/23 08:56:43;;;;;;;31.67;18.80;;;;;;;-1.29;78.10;96622.84;5091878;28;20497;-62
2021/12/23 08:59:09;;;;;;;31.83;18.80;;;;;;;-1.22;78.18;96631.50;5091377;28;20886;-66
2021/12/23 09:01:34;;;;;;;30.43;18.77;;;;;;;-1.15;78.14;96629.94;5090771;28;20467;-67
2021/12/23 09:04:00;;;;;;;31.20;19.15;;;;;;;-0.86;77.63;96632.88;5091133;28;20804;-63
2021/12/23 09:06:25;;;;;;;31.13;19.50;;;;;;;-1.10;78.06;96612.25;5090268;28;20414;-63
2021/12/23 09:08:53;;;;;;;28.88;17.92;;;;;;;-1.03;78.17;96613.25;5091421;28;20837;-63
2021/12/23 09:11:18;;;;;;;29.63;18.63;;;;;;;-0.63;77.17;96599.59;5091484;28;20398;-63
2021/12/23 09:13:44;;;;;;;27.50;17.77;;;;;;;-0.63;77.44;96593.66;5091519;28;20792;-65
2021/12/23 09:16:09;;;;;;;27.57;17.37;;;;;;;-0.36;76.91;96595.06;5091382;28;20394;-63
2021/12/23 09:18:35;;;;;;;27.23;16.98;;;;;;;-0.46;77.16;96611.50;5091000;28;20858;-63
2021/12/23 09:21:00;;;;;;;25.73;16.20;;;;;;;-0.36;76.72;96606.19;5090879;28;20926;-64
2021/12/23 09:23:26;;;;;;;26.90;17.43;;;;;;;-0.08;77.67;96607.41;5091185;28;20390;-63
2021/12/23 09:25:52;;;;;;;27.35;17.17;;;;;;;0.04;77.21;96615.59;5091739;28;20406;-63
2021/12/23 09:33:54;;;;;;;27.57;16.67;;;;;;;0.02;75.90;96620.09;5091626;28;20451;-63
2021/12/23 09:36:19;;;;;;;28.27;17.13;;;;;;;0.23;75.46;96616.97;5090081;28;20808;-63
2021/12/23 09:38:45;;;;;;;28.20;16.95;;;;;;;-0.03;76.70;96612.06;5091299;28;20406;-63
2021/12/23 09:41:13;;;;;;;27.15;17.10;;;;;;;0.13;76.27;96608.63;5090896;28;20477;-61
2021/12/23 09:43:40;;;;;;;25.92;16.85;;;;;;;0.07;76.54;96606.72;5091123;28;20459;-63
2021/12/23 09:46:09;;;;;;;25.73;16.50;;;;;;;0.03;76.85;96598.53;5089202;28;20463;-62
2021/12/23 09:48:37;;;;;;;26.58;16.23;;;;;;;0.29;76.19;96593.94;5090774;28;20386;-62
2021/12/23 09:51:05;;;;;;;22.33;15.18;;;;;;;0.37;76.30;96599.06;5091423;28;20386;-62
2021/12/23 09:53:33;;;;;;;21.98;14.48;;;;;;;0.76;75.04;96596.44;5095590;28;20386;-62
2021/12/23 09:55:59;;;;;;;24.13;15.43;;;;;;;0.79;75.13;96592.72;5094539;28;20435;-63
2021/12/23 09:58:25;;;;;;;23.33;15.50;;;;;;;0.81;75.07;96591.59;5085087;28;20409;-63
2021/12/23 10:00:51;;;;;;;24.90;16.37;;;;;;;0.84;75.57;96580.09;5095067;28;20382;-62
2021/12/23 10:03:19;;;;;;;25.30;16.17;;;;;;;1.21;74.40;96577.59;5094523;28;20573;-63
2021/12/23 10:05:46;;;;;;;27.38;16.60;;;;;;;1.28;74.15;96572.56;5094975;28;20426;-66
2021/12/23 10:08:14;;;;;;;23.48;16.13;;;;;;;1.03;74.46;96568.53;5094849;28;20482;-62
2021/12/23 10:11:29;;;;;;;25.30;16.57;;;;;;;1.15;74.78;96577.50;5094760;28;22110;-62
2021/12/23 10:30:39;;;;;;;24.52;16.20;;;;;;;1.46;74.52;96577.38;5094439;28;20898;-63
2021/12/23 10:38:47;;;;;;;25.75;16.08;;;;;;;1.94;74.04;96571.78;5094703;28;20530;-63
2021/12/23 10:41:20;;;;;;;25.33;15.53;;;;;;;2.18;74.25;96569.88;5094526;28;20429;-64
2021/12/23 10:43:54;;;;;;;22.25;15.00;;;;;;;1.87;73.62;96560.53;5094331;28;20393;-63
2021/12/23 10:46:30;;;;;;;21.10;14.33;;;;;;;1.88;74.32;96563.94;5093777;28;20421;-62
2021/12/23 10:49:32;;;;;;;24.40;14.75;;;;;;;2.13;73.34;96561.84;5093971;28;20390;-62
2021/12/23 10:52:35;;;;;;;20.20;13.27;;;;;;;2.12;74.28;96545.53;5093879;28;20394;-63
2021/12/23 11:00:28;;;;;;;19.67;12.68;;;;;;;3.33;72.57;96517.97;5090448;28;20799;-63
2021/12/23 11:03:11;;;;;;;18.92;13.40;;;;;;;3.22;71.25;96507.31;5092950;28;20383;-64
2021/12/23 11:05:45;;;;;;;18.98;12.38;;;;;;;3.17;70.75;96507.06;5094185;28;20941;-64
2021/12/23 11:38:10;;;;;;;15.52;10.98;;;;;;;4.07;70.37;96468.13;5092761;28;20495;-64
2021/12/23 11:45:44;;;;;;;16.80;11.07;;;;;;;4.14;70.40;96463.78;5092744;28;20414;-63
2021/12/23 11:48:10;;;;;;;16.63;9.93;;;;;;;4.15;70.70;96462.78;5091566;28;20417;-64
2021/12/23 11:50:52;;;;;;;14.73;10.13;;;;;;;4.39;69.73;96456.28;5092692;28;20390;-63
2021/12/23 11:53:18;;;;;;;14.38;9.60;;;;;;;4.78;69.38;96451.16;5092728;28;20415;-65
2021/12/23 11:55:45;;;;;;;13.75;9.40;;;;;;;4.90;67.83;96436.56;5092728;28;20413;-64
2021/12/23 11:58:12;;;;;;;12.82;9.32;;;;;;;5.17;67.27;96450.38;5091575;28;20410;-62
2021/12/23 12:00:48;;;;;;;12.77;9.50;;;;;;;4.99;68.43;96437.19;5092232;28;20386;-62
2021/12/23 12:03:14;;;;;;;13.97;9.97;;;;;;;4.93;68.67;96427.59;5092556;28;20401;-62
2021/12/23 12:05:39;;;;;;;15.32;9.88;;;;;;;5.05;68.43;96426.00;5091160;28;20796;-62
2021/12/23 12:08:10;;;;;;;13.82;9.25;;;;;;;5.00;68.61;96415.41;5090971;28;20425;-62
2021/12/23 12:10:38;;;;;;;13.35;9.23;;;;;;;5.19;67.73;96408.59;5092522;28;20390;-62
2021/12/23 12:13:09;;;;;;;14.07;9.13;;;;;;;5.13;68.42;96415.41;5092314;28;20477;-62
2021/12/23 12:15:47;;;;;;;11.63;8.80;;;;;;;5.01;68.21;96404.81;5091000;28;20389;-72
2021/12/23 12:18:15;;;;;;;14.07;8.48;;;;;;;5.07;68.46;96405.81;5088271;28;20401;-63
2021/12/23 12:20:48;;;;;;;11.53;8.23;;;;;;;5.05;68.32;96407.03;5091451;28;20381;-62
2021/12/23 12:23:23;;;;;;;9.95;7.95;;;;;;;5.17;68.40;96397.63;5094690;28;20405;-62
2021/12/23 12:25:56;;;;;;;11.45;7.88;;;;;;;5.30;67.71;96395.78;5091567;28;20448;-63
2021/12/23 12:28:27;;;;;;;9.73;6.72;;;;;;;5.54;67.85;96388.34;5091952;28;20398;-62
2021/12/23 12:31:01;;;;;;;9.93;6.65;;;;;;;5.30;67.37;96397.59;5077381;28;20846;-62
2021/12/23 12:33:26;;;;;;;10.55;7.13;;;;;;;5.43;67.68;96387.19;5091885;28;20390;-63
2021/12/23 12:35:57;;;;;;;11.00;7.33;;;;;;;5.47;67.06;96392.75;5091595;28;20401;-63